createdAt,value
2023-05-08T00:00:59.793Z,13.11
2023-05-08T00:03:27.091Z,13.09
2023-05-08T00:05:55.412Z,13.01
2023-05-08T00:08:21.800Z,12.96
2023-05-08T00:10:48.276Z,12.96
2023-05-08T00:13:14.776Z,12.96
2023-05-08T00:15:41.276Z,12.91
2023-05-08T00:18:07.760Z,12.96
2023-05-08T00:20:34.443Z,12.95
2023-05-08T00:23:01.002Z,12.94
2023-05-08T00:25:27.847Z,12.94
2023-05-08T00:27:54.254Z,12.94
2023-05-08T00:30:21.279Z,12.92
2023-05-08T00:32:47.780Z,12.91
2023-05-08T00:35:14.402Z,12.93
2023-05-08T00:37:41.273Z,12.91
2023-05-08T00:40:11.888Z,12.84
2023-05-08T00:42:38.494Z,12.79
2023-05-08T00:45:05.329Z,12.72
2023-05-08T00:47:32.555Z,12.66
2023-05-08T00:50:00.948Z,12.61
2023-05-08T00:52:32.946Z,12.54
2023-05-08T00:55:00.332Z,12.55
2023-05-08T00:57:26.818Z,12.42
2023-05-08T00:59:55.488Z,12.37
2023-05-08T01:02:22.213Z,12.31
2023-05-08T01:04:49.195Z,12.33
2023-05-08T01:07:17.819Z,12.35
2023-05-08T01:09:44.202Z,12.38
2023-05-08T01:12:16.269Z,12.29
2023-05-08T01:14:51.224Z,12.31
2023-05-08T01:17:28.078Z,12.18
2023-05-08T01:20:09.763Z,12.21
2023-05-08T01:23:08.037Z,12.11
2023-05-08T01:25:44.124Z,12.16
2023-05-08T01:28:38.176Z,12.21
2023-05-08T01:31:16.741Z,12.20
2023-05-08T01:34:04.956Z,12.14
2023-05-08T01:36:46.191Z,12.15
2023-05-08T01:39:24.592Z,12.09
2023-05-08T01:42:00.696Z,12.04
2023-05-08T01:44:34.221Z,12.03
2023-05-08T01:47:06.765Z,11.98
2023-05-08T01:49:38.909Z,11.95
2023-05-08T01:52:18.156Z,11.97
2023-05-08T01:54:55.614Z,11.97
2023-05-08T01:57:26.686Z,11.95
2023-05-08T01:59:55.972Z,11.94
2023-05-08T02:02:23.267Z,11.90
2023-05-08T02:04:51.741Z,11.89
2023-05-08T02:07:22.201Z,11.85
2023-05-08T02:09:48.740Z,11.85
2023-05-08T02:12:17.260Z,11.85
2023-05-08T02:14:45.806Z,11.82
2023-05-08T02:17:16.150Z,11.82
2023-05-08T02:19:44.436Z,11.87
2023-05-08T02:22:11.943Z,11.80
2023-05-08T02:24:38.716Z,11.78
2023-05-08T02:27:07.573Z,11.81
2023-05-08T02:29:35.004Z,11.78
2023-05-08T02:32:03.079Z,11.78
2023-05-08T02:34:30.824Z,11.79
2023-05-08T02:36:58.964Z,11.81
2023-05-08T02:39:30.328Z,11.79
2023-05-08T02:41:57.263Z,11.78
2023-05-08T02:44:23.787Z,11.60
2023-05-08T02:47:00.790Z,11.56
2023-05-08T02:49:30.115Z,11.52
2023-05-08T02:52:13.741Z,11.37
2023-05-08T02:54:46.942Z,11.28
2023-05-08T02:57:31.935Z,11.31
2023-05-08T03:00:07.687Z,11.34
2023-05-08T03:02:39.999Z,11.40
2023-05-08T03:05:19.143Z,11.48
2023-05-08T03:07:50.180Z,11.51
2023-05-08T03:10:19.143Z,11.49
2023-05-08T03:12:49.662Z,11.46
2023-05-08T03:15:34.952Z,11.44
2023-05-08T03:18:07.924Z,11.42
2023-05-08T03:20:38.803Z,11.39
2023-05-08T03:23:08.229Z,11.31
2023-05-08T03:25:38.468Z,11.28
2023-05-08T03:28:06.096Z,11.27
2023-05-08T03:30:40.194Z,11.24
2023-05-08T03:33:08.038Z,11.26
2023-05-08T03:35:39.084Z,11.28
2023-05-08T03:38:06.685Z,11.28
2023-05-08T03:40:38.754Z,11.27
2023-05-08T03:43:08.618Z,11.27
2023-05-08T03:45:39.379Z,11.21
2023-05-08T03:48:07.323Z,11.19
2023-05-08T03:50:37.846Z,11.23
2023-05-08T03:53:04.889Z,11.22
2023-05-08T03:55:32.142Z,11.18
2023-05-08T03:58:10.526Z,11.13
2023-05-08T04:00:49.160Z,11.07
2023-05-08T04:03:41.386Z,11.05
2023-05-08T04:06:22.899Z,11.02
2023-05-08T04:08:58.373Z,11.05
2023-05-08T04:11:41.291Z,11.08
2023-05-08T04:14:13.414Z,11.08
2023-05-08T04:16:42.195Z,11.11
2023-05-08T04:19:18.051Z,11.06
2023-05-08T04:21:44.920Z,10.96
2023-05-08T04:24:14.699Z,10.97
2023-05-08T04:26:42.396Z,10.98
2023-05-08T04:29:09.609Z,11.01
2023-05-08T04:31:37.210Z,11.06
2023-05-08T04:34:04.506Z,11.09
2023-05-08T04:36:31.689Z,11.03
2023-05-08T04:38:59.166Z,11.06
2023-05-08T04:41:26.287Z,11.11
2023-05-08T04:43:54.342Z,11.11
2023-05-08T04:46:20.920Z,11.14
2023-05-08T04:48:47.457Z,11.17
2023-05-08T04:51:13.892Z,11.22
2023-05-08T04:53:40.386Z,11.23
2023-05-08T04:56:06.966Z,11.28
2023-05-08T04:58:33.344Z,11.32
2023-05-08T05:01:03.844Z,11.35
2023-05-08T05:03:30.766Z,11.42
2023-05-08T05:05:58.948Z,11.50
2023-05-08T05:08:25.565Z,11.52
2023-05-08T05:10:52.365Z,11.53
2023-05-08T05:13:19.767Z,11.67
2023-05-08T05:15:46.343Z,11.77
2023-05-08T05:18:12.905Z,11.88
2023-05-08T05:20:39.398Z,11.98
2023-05-08T05:23:05.848Z,12.08
2023-05-08T05:25:32.175Z,12.18
2023-05-08T05:27:58.529Z,12.14
2023-05-08T05:30:24.927Z,12.16
2023-05-08T05:32:51.414Z,12.13
2023-05-08T05:35:17.861Z,12.28
2023-05-08T05:37:44.216Z,12.34
2023-05-08T05:40:13.111Z,12.37
2023-05-08T05:42:39.478Z,12.46
2023-05-08T05:45:06.459Z,12.56
2023-05-08T05:47:32.791Z,12.63
2023-05-08T05:49:59.157Z,12.72
2023-05-08T05:52:25.635Z,12.77
2023-05-08T05:54:52.019Z,12.82
2023-05-08T05:57:18.381Z,12.94
2023-05-08T05:59:45.143Z,13.07
2023-05-08T06:02:18.578Z,13.14
2023-05-08T06:04:45.316Z,13.23
2023-05-08T06:07:11.719Z,13.32
2023-05-08T06:09:38.327Z,13.39
2023-05-08T06:12:04.772Z,13.48
2023-05-08T06:14:31.248Z,13.58
2023-05-08T06:16:58.447Z,13.69
2023-05-08T06:19:24.811Z,13.74
2023-05-08T06:21:52.098Z,13.80
2023-05-08T06:24:18.500Z,13.84
2023-05-08T06:26:45.330Z,13.97
2023-05-08T06:29:11.711Z,13.95
2023-05-08T06:31:38.200Z,13.97
2023-05-08T06:34:04.723Z,14.04
2023-05-08T06:36:31.702Z,14.07
2023-05-08T06:38:58.099Z,14.15
2023-05-08T06:41:24.537Z,14.18
2023-05-08T06:43:51.070Z,14.24
2023-05-08T06:46:18.019Z,14.36
2023-05-08T06:48:44.428Z,14.49
2023-05-08T06:51:10.739Z,14.54
2023-05-08T06:53:37.156Z,14.66
2023-05-08T06:56:03.597Z,14.82
2023-05-08T06:58:32.084Z,14.94
2023-05-08T07:01:04.121Z,15.05
2023-05-08T07:03:30.453Z,15.23
2023-05-08T07:05:56.864Z,15.45
2023-05-08T07:08:23.257Z,15.61
2023-05-08T07:10:49.671Z,15.69
2023-05-08T07:13:19.934Z,15.68
2023-05-08T07:15:46.497Z,15.73
2023-05-08T07:18:12.916Z,15.74
2023-05-08T07:20:39.429Z,15.69
2023-05-08T07:23:07.018Z,15.65
2023-05-08T07:25:33.353Z,15.60
2023-05-08T07:28:01.313Z,15.57
2023-05-08T07:30:28.062Z,15.52
2023-05-08T07:32:54.455Z,15.54
2023-05-08T07:35:20.841Z,15.58
2023-05-08T07:37:47.334Z,15.60
2023-05-08T07:40:13.725Z,15.62
2023-05-08T07:42:41.449Z,15.64
2023-05-08T07:45:12.575Z,15.69
2023-05-08T07:47:48.579Z,15.71
2023-05-08T07:50:15.119Z,15.71
2023-05-08T07:52:41.499Z,15.77
2023-05-08T07:55:08.490Z,15.83
2023-05-08T07:57:38.890Z,15.94
2023-05-08T08:00:07.148Z,15.93
2023-05-08T08:02:33.711Z,16.06
2023-05-08T08:05:00.245Z,16.10
2023-05-08T08:07:27.177Z,16.11
2023-05-08T08:09:53.642Z,16.14
2023-05-08T08:12:20.784Z,16.14
2023-05-08T08:14:47.143Z,16.12
2023-05-08T08:17:13.535Z,16.17
2023-05-08T08:19:40.276Z,16.12
2023-05-08T08:22:06.658Z,16.14
2023-05-08T08:24:33.108Z,16.18
2023-05-08T08:26:59.489Z,16.25
2023-05-08T08:29:25.970Z,16.29
2023-05-08T08:31:52.390Z,16.28
2023-05-08T08:34:18.801Z,16.36
2023-05-08T08:36:45.224Z,16.41
2023-05-08T08:39:13.432Z,16.50
2023-05-08T08:41:41.140Z,16.71
2023-05-08T08:44:07.581Z,16.90
2023-05-08T08:46:38.275Z,17.12
2023-05-08T08:49:08.197Z,17.44
2023-05-08T08:51:45.970Z,17.66
2023-05-08T08:54:14.014Z,17.78
2023-05-08T08:56:44.622Z,17.60
2023-05-08T08:59:16.508Z,17.50
2023-05-08T09:01:48.017Z,17.42
2023-05-08T09:04:16.316Z,17.47
2023-05-08T09:06:42.983Z,17.51
2023-05-08T09:09:12.278Z,17.54
2023-05-08T09:11:40.393Z,17.69
2023-05-08T09:14:07.089Z,17.78
2023-05-08T09:16:33.476Z,17.90
2023-05-08T09:19:00.485Z,18.05
2023-05-08T09:21:27.758Z,18.00
2023-05-08T09:24:01.356Z,17.97
2023-05-08T09:26:27.703Z,18.07
2023-05-08T09:29:23.776Z,18.34
2023-05-08T09:31:52.701Z,18.39
2023-05-08T09:34:30.301Z,18.43
2023-05-08T09:37:13.873Z,18.55
2023-05-08T09:39:41.988Z,18.67
2023-05-08T09:42:08.334Z,18.76
2023-05-08T09:45:01.136Z,18.75
2023-05-08T09:47:27.572Z,18.80
2023-05-08T09:50:02.091Z,18.90
2023-05-08T09:52:29.668Z,18.88
2023-05-08T09:55:01.769Z,18.93
2023-05-08T09:57:29.451Z,18.93
2023-05-08T10:00:11.883Z,19.08
2023-05-08T10:02:53.739Z,18.94
2023-05-08T10:05:25.294Z,19.01
2023-05-08T10:07:51.834Z,19.10
2023-05-08T10:10:33.562Z,18.89
2023-05-08T10:13:00.095Z,19.05
2023-05-08T10:15:29.964Z,19.23
2023-05-08T10:17:56.379Z,19.19
2023-05-08T10:20:27.437Z,18.98
2023-05-08T10:22:57.250Z,18.92
2023-05-08T10:25:24.712Z,18.88
2023-05-08T10:28:06.355Z,18.82
2023-05-08T10:30:38.150Z,18.76
2023-05-08T10:33:09.476Z,18.70
2023-05-08T10:35:37.610Z,18.76
2023-05-08T10:38:05.194Z,18.83
2023-05-08T10:40:31.642Z,18.91
2023-05-08T10:42:59.273Z,19.03
2023-05-08T10:45:26.755Z,19.22
2023-05-08T10:48:08.472Z,19.45
2023-05-08T10:50:44.571Z,19.40
2023-05-08T10:53:11.138Z,19.34
2023-05-08T10:55:38.860Z,19.32
2023-05-08T10:58:08.362Z,19.48
2023-05-08T11:01:07.863Z,19.43
2023-05-08T11:03:44.992Z,19.30
2023-05-08T11:06:11.944Z,19.28
2023-05-08T11:09:04.759Z,19.20
2023-05-08T11:11:33.726Z,19.02
2023-05-08T11:14:12.021Z,18.95
2023-05-08T11:16:53.778Z,18.93
2023-05-08T11:19:22.312Z,18.84
2023-05-08T11:22:13.557Z,18.82
2023-05-08T11:24:46.703Z,18.84
2023-05-08T11:27:13.171Z,18.92
2023-05-08T11:29:39.909Z,19.05
2023-05-08T11:32:06.487Z,19.16
2023-05-08T11:34:45.846Z,19.42
2023-05-08T11:37:17.915Z,19.66
2023-05-08T11:39:44.542Z,19.76
2023-05-08T11:42:29.120Z,20.08
2023-05-08T11:45:09.750Z,20.24
2023-05-08T11:47:44.434Z,20.21
2023-05-08T11:50:13.277Z,20.19
2023-05-08T11:52:41.585Z,20.00
2023-05-08T11:55:12.820Z,19.83
2023-05-08T11:57:39.359Z,19.69
2023-05-08T12:00:10.671Z,19.66
2023-05-08T12:02:42.454Z,19.67
2023-05-08T12:05:10.671Z,19.87
2023-05-08T12:07:45.112Z,19.90
2023-05-08T12:10:11.966Z,19.85
2023-05-08T12:12:40.598Z,19.85
2023-05-08T12:15:12.303Z,20.00
2023-05-08T12:17:39.297Z,20.36
2023-05-08T12:20:13.513Z,20.96
2023-05-08T12:22:50.907Z,21.54
2023-05-08T12:25:17.893Z,21.68
2023-05-08T12:27:44.893Z,21.57
2023-05-08T12:30:13.998Z,21.34
2023-05-08T12:32:41.866Z,21.33
2023-05-08T12:35:09.943Z,21.46
2023-05-08T12:37:36.731Z,21.79
2023-05-08T12:40:04.628Z,22.48
2023-05-08T12:42:48.278Z,22.83
2023-05-08T12:45:22.284Z,22.77
2023-05-08T12:47:53.457Z,22.92
2023-05-08T12:50:22.297Z,23.18
2023-05-08T12:52:51.391Z,23.19
2023-05-08T12:55:23.786Z,23.17
2023-05-08T12:57:58.646Z,22.80
2023-05-08T13:00:25.207Z,22.50
2023-05-08T13:02:56.014Z,22.33
2023-05-08T13:05:23.562Z,22.10
2023-05-08T13:07:51.487Z,22.03
2023-05-08T13:10:23.959Z,21.81
2023-05-08T13:12:52.226Z,21.62
2023-05-08T13:15:18.798Z,21.47
2023-05-08T13:17:45.263Z,21.42
2023-05-08T13:20:12.024Z,21.38
2023-05-08T13:22:38.539Z,21.46
2023-05-08T13:25:05.804Z,21.70
2023-05-08T13:27:32.205Z,21.69
2023-05-08T13:29:58.627Z,21.50
2023-05-08T13:32:25.030Z,21.37
2023-05-08T13:34:53.103Z,21.34
2023-05-08T13:37:22.914Z,21.31
2023-05-08T13:39:49.266Z,21.35
2023-05-08T13:42:15.720Z,21.51
2023-05-08T13:44:42.120Z,21.91
2023-05-08T13:47:09.991Z,22.28
2023-05-08T13:49:36.328Z,22.41
2023-05-08T13:52:02.884Z,22.36
2023-05-08T13:54:29.416Z,22.34
2023-05-08T13:56:55.916Z,22.20
2023-05-08T13:59:22.307Z,22.27
2023-05-08T14:01:48.674Z,22.31
2023-05-08T14:04:15.335Z,22.26
2023-05-08T14:06:41.792Z,22.17
2023-05-08T14:09:08.197Z,22.12
2023-05-08T14:11:34.532Z,21.97
2023-05-08T14:14:00.972Z,21.76
2023-05-08T14:16:28.400Z,21.66
2023-05-08T14:18:54.882Z,21.48
2023-05-08T14:21:21.269Z,21.38
2023-05-08T14:23:47.662Z,21.33
2023-05-08T14:26:14.029Z,21.31
2023-05-08T14:28:40.541Z,21.38
2023-05-08T14:31:06.987Z,21.47
2023-05-08T14:33:33.456Z,21.57
2023-05-08T14:35:59.862Z,21.62
2023-05-08T14:38:26.293Z,21.54
2023-05-08T14:40:54.357Z,21.50
2023-05-08T14:43:21.553Z,21.64
2023-05-08T14:45:48.289Z,21.81
2023-05-08T14:48:14.920Z,21.94
2023-05-08T14:50:41.617Z,21.90
2023-05-08T14:53:08.322Z,21.74
2023-05-08T14:55:34.959Z,21.59
2023-05-08T14:58:01.484Z,21.55
2023-05-08T15:00:27.879Z,21.43
2023-05-08T15:02:54.427Z,21.41
2023-05-08T15:05:21.106Z,21.51
2023-05-08T15:07:49.494Z,21.77
2023-05-08T15:10:16.091Z,22.17
2023-05-08T15:12:42.553Z,22.20
2023-05-08T15:15:09.257Z,22.19
2023-05-08T15:17:36.488Z,22.10
2023-05-08T15:20:03.816Z,21.87
2023-05-08T15:22:30.350Z,21.75
2023-05-08T15:25:02.130Z,21.59
2023-05-08T15:27:31.963Z,21.42
2023-05-08T15:29:58.557Z,21.43
2023-05-08T15:32:25.066Z,21.50
2023-05-08T15:34:51.551Z,21.54
2023-05-08T15:37:17.935Z,21.69
2023-05-08T15:39:44.334Z,21.64
2023-05-08T15:42:10.711Z,21.62
2023-05-08T15:44:53.990Z,21.63
2023-05-08T15:47:23.102Z,21.63
2023-05-08T15:49:53.195Z,21.58
2023-05-08T15:52:19.881Z,21.47
2023-05-08T15:54:47.291Z,21.43
2023-05-08T15:57:13.824Z,21.35
2023-05-08T15:59:40.344Z,21.23
2023-05-08T16:02:06.781Z,21.15
2023-05-08T16:04:33.153Z,21.04
2023-05-08T16:06:59.993Z,20.92
2023-05-08T16:09:26.562Z,20.93
2023-05-08T16:11:52.992Z,20.84
2023-05-08T16:14:20.106Z,20.79
2023-05-08T16:16:46.583Z,20.81
2023-05-08T16:19:12.941Z,20.73
2023-05-08T16:21:39.409Z,20.65
2023-05-08T16:24:06.074Z,20.50
2023-05-08T16:26:32.429Z,20.48
2023-05-08T16:28:58.834Z,20.41
2023-05-08T16:31:25.216Z,20.34
2023-05-08T16:33:51.632Z,20.33
2023-05-08T16:36:17.956Z,20.30
2023-05-08T16:38:44.299Z,20.29
2023-05-08T16:41:11.245Z,20.32
2023-05-08T16:43:37.623Z,20.24
2023-05-08T16:46:06.503Z,20.26
2023-05-08T16:48:33.451Z,20.25
2023-05-08T16:50:59.909Z,20.26
2023-05-08T16:53:27.232Z,20.37
2023-05-08T16:55:54.534Z,20.38
2023-05-08T16:58:22.837Z,20.50
2023-05-08T17:00:49.417Z,20.40
2023-05-08T17:03:15.978Z,20.45
2023-05-08T17:05:42.459Z,20.49
2023-05-08T17:08:08.810Z,20.43
2023-05-08T17:10:35.716Z,20.37
2023-05-08T17:13:02.123Z,20.40
2023-05-08T17:15:28.968Z,20.40
2023-05-08T17:17:55.999Z,20.31
2023-05-08T17:20:22.401Z,20.14
2023-05-08T17:22:48.847Z,20.07
2023-05-08T17:25:15.309Z,20.00
2023-05-08T17:27:41.707Z,19.97
2023-05-08T17:30:11.891Z,19.80
2023-05-08T17:32:38.735Z,19.76
2023-05-08T17:35:05.807Z,19.75
2023-05-08T17:37:32.214Z,19.63
2023-05-08T17:39:58.568Z,19.51
2023-05-08T17:42:24.980Z,19.46
2023-05-08T17:44:51.312Z,19.31
2023-05-08T17:47:17.698Z,19.34
2023-05-08T17:49:44.101Z,19.31
2023-05-08T17:52:10.526Z,19.28
2023-05-08T17:54:36.872Z,19.17
2023-05-08T17:57:03.300Z,19.14
2023-05-08T17:59:29.676Z,19.12
2023-05-08T18:01:56.083Z,19.12
2023-05-08T18:04:22.848Z,19.12
2023-05-08T18:06:51.498Z,19.04
2023-05-08T18:09:17.840Z,19.03
2023-05-08T18:11:44.383Z,18.89
2023-05-08T18:14:10.907Z,18.86
2023-05-08T18:16:37.329Z,18.80
2023-05-08T18:19:03.797Z,18.75
2023-05-08T18:21:31.519Z,18.72
2023-05-08T18:23:57.942Z,18.66
2023-05-08T18:26:24.391Z,18.66
2023-05-08T18:28:50.794Z,18.66
2023-05-08T18:31:17.169Z,18.55
2023-05-08T18:33:43.593Z,18.52
2023-05-08T18:36:10.103Z,18.45
2023-05-08T18:38:36.617Z,18.45
2023-05-08T18:41:06.301Z,18.40
2023-05-08T18:43:33.007Z,18.31
2023-05-08T18:46:00.596Z,18.26
2023-05-08T18:48:27.255Z,18.21
2023-05-08T18:50:55.783Z,18.16
2023-05-08T18:53:22.248Z,18.18
2023-05-08T18:55:48.626Z,18.11
2023-05-08T18:58:15.003Z,18.04
2023-05-08T19:00:41.528Z,17.98
2023-05-08T19:03:08.015Z,17.90
2023-05-08T19:05:34.567Z,17.89
2023-05-08T19:08:00.976Z,17.86
2023-05-08T19:10:27.551Z,17.78
2023-05-08T19:12:54.008Z,17.71
2023-05-08T19:15:20.534Z,17.67
2023-05-08T19:17:47.001Z,17.61
2023-05-08T19:20:13.855Z,17.46
2023-05-08T19:22:40.559Z,17.45
2023-05-08T19:25:07.224Z,17.39
2023-05-08T19:27:33.615Z,17.39
2023-05-08T19:30:00.068Z,17.34
2023-05-08T19:32:26.611Z,17.27
2023-05-08T19:34:53.531Z,17.25
2023-05-08T19:37:19.889Z,17.17
2023-05-08T19:39:46.248Z,17.11
2023-05-08T19:42:13.807Z,17.06
2023-05-08T19:44:40.270Z,16.96
2023-05-08T19:47:07.088Z,16.88
2023-05-08T19:49:33.426Z,16.82
2023-05-08T19:51:59.871Z,16.77
2023-05-08T19:54:26.235Z,16.75
2023-05-08T19:56:52.615Z,16.68
2023-05-08T19:59:18.965Z,16.64
2023-05-08T20:01:45.503Z,16.44
2023-05-08T20:04:12.057Z,16.42
2023-05-08T20:06:39.218Z,16.44
2023-05-08T20:09:06.260Z,16.42
2023-05-08T20:11:32.782Z,16.29
2023-05-08T20:13:59.264Z,16.31
2023-05-08T20:16:25.730Z,16.33
2023-05-08T20:18:55.165Z,16.23
2023-05-08T20:21:21.667Z,16.19
2023-05-08T20:23:48.309Z,16.20
2023-05-08T20:26:14.664Z,16.21
2023-05-08T20:28:41.076Z,16.15
2023-05-08T20:31:07.594Z,15.97
2023-05-08T20:33:34.037Z,16.05
2023-05-08T20:36:00.467Z,16.03
2023-05-08T20:38:26.865Z,16.11
2023-05-08T20:40:55.835Z,16.13
2023-05-08T20:43:25.036Z,16.21
2023-05-08T20:45:51.458Z,16.23
2023-05-08T20:48:17.839Z,16.20
2023-05-08T20:50:44.243Z,16.21
2023-05-08T20:53:10.645Z,16.24
2023-05-08T20:55:37.053Z,16.26
2023-05-08T20:58:04.202Z,16.23
2023-05-08T21:00:30.798Z,16.17
2023-05-08T21:02:57.290Z,16.16
2023-05-08T21:05:23.740Z,16.14
2023-05-08T21:07:50.254Z,16.16
2023-05-08T21:10:17.243Z,16.17
2023-05-08T21:12:45.268Z,16.20
2023-05-08T21:15:11.733Z,16.17
2023-05-08T21:17:38.273Z,16.09
2023-05-08T21:20:05.155Z,16.04
2023-05-08T21:22:33.777Z,16.02
2023-05-08T21:25:00.211Z,15.97
2023-05-08T21:27:27.036Z,15.96
2023-05-08T21:29:53.483Z,15.92
2023-05-08T21:32:19.807Z,15.90
2023-05-08T21:34:46.162Z,15.86
2023-05-08T21:37:12.689Z,15.83
2023-05-08T21:39:39.080Z,15.77
2023-05-08T21:42:05.584Z,15.71
2023-05-08T21:44:31.977Z,15.71
2023-05-08T21:46:58.333Z,15.73
2023-05-08T21:49:24.758Z,15.67
2023-05-08T21:51:52.892Z,15.63
2023-05-08T21:54:22.279Z,15.63
2023-05-08T21:56:48.731Z,15.66
2023-05-08T21:59:15.603Z,15.67
2023-05-08T22:01:42.218Z,15.66
2023-05-08T22:04:08.633Z,15.64
2023-05-08T22:06:35.043Z,15.60
2023-05-08T22:09:01.850Z,15.58
2023-05-08T22:11:28.244Z,15.56
2023-05-08T22:13:54.677Z,15.54
2023-05-08T22:16:21.082Z,15.57
2023-05-08T22:18:47.452Z,15.53
2023-05-08T22:21:13.871Z,15.49
2023-05-08T22:23:40.249Z,15.55
2023-05-08T22:26:07.070Z,15.50
2023-05-08T22:28:33.474Z,15.50
2023-05-08T22:30:59.891Z,15.52
2023-05-08T22:33:26.292Z,15.55
2023-05-08T22:35:52.651Z,15.48
2023-05-08T22:38:19.068Z,15.47
2023-05-08T22:40:47.594Z,15.46
2023-05-08T22:43:14.300Z,15.42
2023-05-08T22:45:40.738Z,15.34
2023-05-08T22:48:07.356Z,15.25
2023-05-08T22:50:35.371Z,15.29
2023-05-08T22:53:07.713Z,15.29
2023-05-08T22:55:35.014Z,15.29
2023-05-08T22:58:01.809Z,15.27
2023-05-08T23:00:28.150Z,15.24
2023-05-08T23:02:55.086Z,15.22
2023-05-08T23:05:21.719Z,15.17
2023-05-08T23:07:48.048Z,15.21
2023-05-08T23:10:15.750Z,15.20
2023-05-08T23:12:42.899Z,15.21
2023-05-08T23:15:09.930Z,15.14
2023-05-08T23:17:36.354Z,15.12
2023-05-08T23:20:02.896Z,15.11
2023-05-08T23:22:29.266Z,15.10
2023-05-08T23:24:55.643Z,15.12
2023-05-08T23:27:22.059Z,15.08
2023-05-08T23:29:48.526Z,15.09
2023-05-08T23:32:15.276Z,15.07
2023-05-08T23:34:42.287Z,15.01
2023-05-08T23:37:08.959Z,14.98
2023-05-08T23:39:37.984Z,14.99
2023-05-08T23:42:04.425Z,14.96
2023-05-08T23:44:30.780Z,14.91
2023-05-08T23:46:57.149Z,14.90
2023-05-08T23:49:23.546Z,14.94
2023-05-08T23:51:49.930Z,14.94
2023-05-08T23:54:16.469Z,14.89
2023-05-08T23:56:43.097Z,14.88
2023-05-08T23:59:09.685Z,14.90
